sensor_id;sensor_type;location;lat;lon;timestamp;P1;durP1;ratioP1;P2;durP2;ratioP2
4112;SDS011;2070;51.042;7.056;2022-12-07T00:00:24;31.53;;;16.37;;
4112;SDS011;2070;51.042;7.056;2022-12-07T00:02:50;36.03;;;19.53;;
4112;SDS011;2070;51.042;7.056;2022-12-07T00:05:15;32.93;;;18.07;;
4112;SDS011;2070;51.042;7.056;2022-12-07T00:07:40;54.60;;;20.63;;
4112;SDS011;2070;51.042;7.056;2022-12-07T00:10:05;34.10;;;17.17;;
4112;SDS011;2070;51.042;7.056;2022-12-07T00:12:31;39.40;;;17.50;;
4112;SDS011;2070;51.042;7.056;2022-12-07T00:14:56;36.50;;;20.60;;
4112;SDS011;2070;51.042;7.056;2022-12-07T00:17:21;35.23;;;19.40;;
4112;SDS011;2070;51.042;7.056;2022-12-07T00:19:46;31.93;;;17.70;;
4112;SDS011;2070;51.042;7.056;2022-12-07T00:22:11;44.37;;;19.93;;
4112;SDS011;2070;51.042;7.056;2022-12-07T00:24:37;37.40;;;19.20;;
4112;SDS011;2070;51.042;7.056;2022-12-07T00:27:02;36.40;;;19.60;;
4112;SDS011;2070;51.042;7.056;2022-12-07T00:29:27;35.63;;;18.53;;
4112;SDS011;2070;51.042;7.056;2022-12-07T00:31:52;36.40;;;19.50;;
4112;SDS011;2070;51.042;7.056;2022-12-07T00:34:18;39.23;;;20.37;;
4112;SDS011;2070;51.042;7.056;2022-12-07T00:36:44;38.50;;;19.60;;
4112;SDS011;2070;51.042;7.056;2022-12-07T00:39:09;45.97;;;20.47;;
4112;SDS011;2070;51.042;7.056;2022-12-07T00:41:34;43.97;;;20.27;;
4112;SDS011;2070;51.042;7.056;2022-12-07T00:43:59;34.60;;;17.90;;
4112;SDS011;2070;51.042;7.056;2022-12-07T00:46:24;44.87;;;20.13;;
4112;SDS011;2070;51.042;7.056;2022-12-07T00:48:50;34.33;;;18.57;;
4112;SDS011;2070;51.042;7.056;2022-12-07T00:51:16;44.73;;;19.17;;
4112;SDS011;2070;51.042;7.056;2022-12-07T00:53:41;41.97;;;19.70;;
4112;SDS011;2070;51.042;7.056;2022-12-07T00:56:26;42.90;;;20.37;;
4112;SDS011;2070;51.042;7.056;2022-12-07T00:58:55;38.80;;;19.83;;
4112;SDS011;2070;51.042;7.056;2022-12-07T01:01:21;44.07;;;20.60;;
4112;SDS011;2070;51.042;7.056;2022-12-07T01:03:46;40.57;;;19.47;;
4112;SDS011;2070;51.042;7.056;2022-12-07T01:06:14;40.47;;;20.57;;
4112;SDS011;2070;51.042;7.056;2022-12-07T01:08:39;44.43;;;19.03;;
4112;SDS011;2070;51.042;7.056;2022-12-07T01:11:05;37.97;;;19.27;;
4112;SDS011;2070;51.042;7.056;2022-12-07T01:13:32;38.70;;;18.97;;
4112;SDS011;2070;51.042;7.056;2022-12-07T01:15:58;32.90;;;19.03;;
4112;SDS011;2070;51.042;7.056;2022-12-07T01:18:24;46.10;;;21.93;;
4112;SDS011;2070;51.042;7.056;2022-12-07T01:23:34;32.97;;;20.33;;
4112;SDS011;2070;51.042;7.056;2022-12-07T01:26:00;36.13;;;20.40;;
4112;SDS011;2070;51.042;7.056;2022-12-07T01:28:25;46.33;;;20.80;;
4112;SDS011;2070;51.042;7.056;2022-12-07T01:31:01;38.40;;;21.63;;
4112;SDS011;2070;51.042;7.056;2022-12-07T01:33:30;35.87;;;19.83;;
4112;SDS011;2070;51.042;7.056;2022-12-07T01:36:00;43.63;;;19.83;;
4112;SDS011;2070;51.042;7.056;2022-12-07T01:38:25;35.10;;;19.50;;
4112;SDS011;2070;51.042;7.056;2022-12-07T01:40:54;46.07;;;20.20;;
4112;SDS011;2070;51.042;7.056;2022-12-07T01:43:19;39.97;;;21.40;;
4112;SDS011;2070;51.042;7.056;2022-12-07T01:45:45;40.80;;;20.40;;
4112;SDS011;2070;51.042;7.056;2022-12-07T01:48:10;38.23;;;21.07;;
4112;SDS011;2070;51.042;7.056;2022-12-07T01:50:36;42.17;;;22.03;;
4112;SDS011;2070;51.042;7.056;2022-12-07T01:53:03;38.70;;;18.67;;
4112;SDS011;2070;51.042;7.056;2022-12-07T01:55:29;40.70;;;21.07;;
4112;SDS011;2070;51.042;7.056;2022-12-07T01:57:55;44.53;;;21.57;;
4112;SDS011;2070;51.042;7.056;2022-12-07T02:00:20;40.43;;;21.10;;
4112;SDS011;2070;51.042;7.056;2022-12-07T02:05:11;48.25;;;21.30;;
4112;SDS011;2070;51.042;7.056;2022-12-07T02:07:37;37.47;;;21.20;;
4112;SDS011;2070;51.042;7.056;2022-12-07T02:15:27;46.33;;;20.30;;
4112;SDS011;2070;51.042;7.056;2022-12-07T02:20:39;41.47;;;23.27;;
4112;SDS011;2070;51.042;7.056;2022-12-07T02:23:21;51.60;;;23.00;;
4112;SDS011;2070;51.042;7.056;2022-12-07T02:26:03;43.57;;;22.50;;
4112;SDS011;2070;51.042;7.056;2022-12-07T02:28:35;44.33;;;21.50;;
4112;SDS011;2070;51.042;7.056;2022-12-07T02:31:06;57.50;;;26.10;;
4112;SDS011;2070;51.042;7.056;2022-12-07T02:33:35;56.87;;;24.53;;
4112;SDS011;2070;51.042;7.056;2022-12-07T02:36:08;38.13;;;21.60;;
4112;SDS011;2070;51.042;7.056;2022-12-07T02:38:40;52.03;;;25.27;;
4112;SDS011;2070;51.042;7.056;2022-12-07T02:43:52;45.17;;;22.50;;
4112;SDS011;2070;51.042;7.056;2022-12-07T02:46:20;49.20;;;23.20;;
4112;SDS011;2070;51.042;7.056;2022-12-07T02:48:46;46.90;;;23.73;;
4112;SDS011;2070;51.042;7.056;2022-12-07T02:51:11;40.70;;;22.00;;
4112;SDS011;2070;51.042;7.056;2022-12-07T02:53:41;42.03;;;22.13;;
4112;SDS011;2070;51.042;7.056;2022-12-07T03:03:46;41.00;;;23.37;;
4112;SDS011;2070;51.042;7.056;2022-12-07T03:06:16;55.13;;;23.57;;
4112;SDS011;2070;51.042;7.056;2022-12-07T03:11:17;49.00;;;25.40;;
4112;SDS011;2070;51.042;7.056;2022-12-07T03:16:25;65.17;;;27.53;;
4112;SDS011;2070;51.042;7.056;2022-12-07T03:21:22;55.37;;;24.00;;
4112;SDS011;2070;51.042;7.056;2022-12-07T03:23:49;46.47;;;25.00;;
4112;SDS011;2070;51.042;7.056;2022-12-07T03:26:16;52.50;;;26.50;;
4112;SDS011;2070;51.042;7.056;2022-12-07T03:28:43;55.43;;;23.03;;
4112;SDS011;2070;51.042;7.056;2022-12-07T03:31:17;40.67;;;24.20;;
4112;SDS011;2070;51.042;7.056;2022-12-07T03:33:49;48.90;;;23.37;;
4112;SDS011;2070;51.042;7.056;2022-12-07T03:36:34;46.57;;;23.00;;
4112;SDS011;2070;51.042;7.056;2022-12-07T03:39:03;49.27;;;24.40;;
4112;SDS011;2070;51.042;7.056;2022-12-07T03:41:33;50.87;;;25.57;;
4112;SDS011;2070;51.042;7.056;2022-12-07T03:43:59;52.63;;;25.37;;
4112;SDS011;2070;51.042;7.056;2022-12-07T03:49:07;50.77;;;24.47;;
4112;SDS011;2070;51.042;7.056;2022-12-07T03:51:56;65.07;;;27.07;;
4112;SDS011;2070;51.042;7.056;2022-12-07T03:54:24;56.37;;;25.27;;
4112;SDS011;2070;51.042;7.056;2022-12-07T03:56:51;49.93;;;23.43;;
4112;SDS011;2070;51.042;7.056;2022-12-07T03:59:17;46.87;;;26.20;;
4112;SDS011;2070;51.042;7.056;2022-12-07T04:01:43;54.17;;;26.47;;
4112;SDS011;2070;51.042;7.056;2022-12-07T04:04:08;50.10;;;23.27;;
4112;SDS011;2070;51.042;7.056;2022-12-07T04:06:33;46.23;;;24.80;;
4112;SDS011;2070;51.042;7.056;2022-12-07T04:08:58;42.60;;;23.77;;
4112;SDS011;2070;51.042;7.056;2022-12-07T04:11:24;39.77;;;24.63;;
4112;SDS011;2070;51.042;7.056;2022-12-07T04:13:49;48.87;;;26.23;;
4112;SDS011;2070;51.042;7.056;2022-12-07T04:16:32;44.87;;;23.13;;
4112;SDS011;2070;51.042;7.056;2022-12-07T04:18:58;42.70;;;24.60;;
4112;SDS011;2070;51.042;7.056;2022-12-07T04:21:23;42.73;;;23.10;;
4112;SDS011;2070;51.042;7.056;2022-12-07T04:23:48;46.60;;;23.13;;
4112;SDS011;2070;51.042;7.056;2022-12-07T04:26:13;47.10;;;24.80;;
4112;SDS011;2070;51.042;7.056;2022-12-07T04:28:38;52.10;;;24.20;;
4112;SDS011;2070;51.042;7.056;2022-12-07T04:31:04;46.47;;;23.83;;
4112;SDS011;2070;51.042;7.056;2022-12-07T04:33:29;51.17;;;26.37;;
4112;SDS011;2070;51.042;7.056;2022-12-07T04:35:54;52.97;;;23.93;;
4112;SDS011;2070;51.042;7.056;2022-12-07T04:38:19;48.47;;;26.47;;
4112;SDS011;2070;51.042;7.056;2022-12-07T04:40:44;44.17;;;23.53;;
4112;SDS011;2070;51.042;7.056;2022-12-07T04:43:10;55.67;;;25.03;;
4112;SDS011;2070;51.042;7.056;2022-12-07T04:45:35;53.23;;;26.07;;
4112;SDS011;2070;51.042;7.056;2022-12-07T04:48:00;53.13;;;25.13;;
4112;SDS011;2070;51.042;7.056;2022-12-07T04:50:25;45.00;;;22.63;;
4112;SDS011;2070;51.042;7.056;2022-12-07T04:52:50;46.20;;;23.60;;
4112;SDS011;2070;51.042;7.056;2022-12-07T04:55:16;47.37;;;23.90;;
4112;SDS011;2070;51.042;7.056;2022-12-07T04:57:41;52.60;;;24.87;;
4112;SDS011;2070;51.042;7.056;2022-12-07T05:00:06;47.60;;;23.20;;
4112;SDS011;2070;51.042;7.056;2022-12-07T05:02:32;45.97;;;24.53;;
4112;SDS011;2070;51.042;7.056;2022-12-07T05:04:57;44.93;;;23.73;;
4112;SDS011;2070;51.042;7.056;2022-12-07T05:07:22;45.20;;;24.10;;
4112;SDS011;2070;51.042;7.056;2022-12-07T05:09:47;46.67;;;25.47;;
4112;SDS011;2070;51.042;7.056;2022-12-07T05:12:12;38.57;;;22.97;;
4112;SDS011;2070;51.042;7.056;2022-12-07T05:14:38;41.03;;;21.53;;
4112;SDS011;2070;51.042;7.056;2022-12-07T05:17:03;42.73;;;22.37;;
4112;SDS011;2070;51.042;7.056;2022-12-07T05:19:29;40.43;;;22.90;;
4112;SDS011;2070;51.042;7.056;2022-12-07T05:21:54;37.40;;;22.33;;
4112;SDS011;2070;51.042;7.056;2022-12-07T05:24:19;52.07;;;24.57;;
4112;SDS011;2070;51.042;7.056;2022-12-07T05:26:45;42.73;;;22.60;;
4112;SDS011;2070;51.042;7.056;2022-12-07T05:29:11;43.27;;;23.17;;
4112;SDS011;2070;51.042;7.056;2022-12-07T05:31:36;45.03;;;23.20;;
4112;SDS011;2070;51.042;7.056;2022-12-07T05:34:01;44.10;;;20.53;;
4112;SDS011;2070;51.042;7.056;2022-12-07T05:36:26;42.13;;;21.77;;
4112;SDS011;2070;51.042;7.056;2022-12-07T05:38:53;44.93;;;23.83;;
4112;SDS011;2070;51.042;7.056;2022-12-07T05:41:18;38.80;;;20.87;;
4112;SDS011;2070;51.042;7.056;2022-12-07T05:44:02;45.23;;;22.30;;
4112;SDS011;2070;51.042;7.056;2022-12-07T05:46:28;45.03;;;22.33;;
4112;SDS011;2070;51.042;7.056;2022-12-07T05:48:53;40.00;;;22.70;;
4112;SDS011;2070;51.042;7.056;2022-12-07T05:51:18;46.63;;;21.87;;
4112;SDS011;2070;51.042;7.056;2022-12-07T05:53:43;43.17;;;22.63;;
4112;SDS011;2070;51.042;7.056;2022-12-07T05:56:09;59.73;;;22.37;;
4112;SDS011;2070;51.042;7.056;2022-12-07T05:58:34;35.93;;;21.30;;
4112;SDS011;2070;51.042;7.056;2022-12-07T06:01:18;44.67;;;21.13;;
4112;SDS011;2070;51.042;7.056;2022-12-07T06:03:43;44.40;;;20.77;;
4112;SDS011;2070;51.042;7.056;2022-12-07T06:06:09;36.87;;;20.33;;
4112;SDS011;2070;51.042;7.056;2022-12-07T06:08:35;42.10;;;20.63;;
4112;SDS011;2070;51.042;7.056;2022-12-07T06:11:00;45.50;;;21.40;;
4112;SDS011;2070;51.042;7.056;2022-12-07T06:13:43;35.10;;;19.27;;
4112;SDS011;2070;51.042;7.056;2022-12-07T06:16:08;50.80;;;22.73;;
4112;SDS011;2070;51.042;7.056;2022-12-07T06:18:34;40.10;;;21.93;;
4112;SDS011;2070;51.042;7.056;2022-12-07T06:20:59;41.77;;;20.83;;
4112;SDS011;2070;51.042;7.056;2022-12-07T06:23:24;42.47;;;21.33;;
4112;SDS011;2070;51.042;7.056;2022-12-07T06:25:49;38.60;;;22.53;;
4112;SDS011;2070;51.042;7.056;2022-12-07T06:28:14;38.13;;;19.80;;
4112;SDS011;2070;51.042;7.056;2022-12-07T06:30:40;41.60;;;19.87;;
4112;SDS011;2070;51.042;7.056;2022-12-07T06:33:05;42.87;;;20.13;;
4112;SDS011;2070;51.042;7.056;2022-12-07T06:35:32;51.20;;;20.80;;
4112;SDS011;2070;51.042;7.056;2022-12-07T06:37:57;48.17;;;21.40;;
4112;SDS011;2070;51.042;7.056;2022-12-07T06:40:22;37.57;;;20.13;;
4112;SDS011;2070;51.042;7.056;2022-12-07T06:42:47;31.43;;;18.80;;
4112;SDS011;2070;51.042;7.056;2022-12-07T06:45:13;41.90;;;20.30;;
4112;SDS011;2070;51.042;7.056;2022-12-07T06:47:38;35.23;;;19.97;;
4112;SDS011;2070;51.042;7.056;2022-12-07T06:50:03;52.77;;;19.17;;
4112;SDS011;2070;51.042;7.056;2022-12-07T06:52:29;44.53;;;21.20;;
4112;SDS011;2070;51.042;7.056;2022-12-07T06:54:55;43.63;;;21.30;;
4112;SDS011;2070;51.042;7.056;2022-12-07T06:57:20;35.83;;;18.80;;
4112;SDS011;2070;51.042;7.056;2022-12-07T06:59:45;39.93;;;16.90;;
4112;SDS011;2070;51.042;7.056;2022-12-07T07:02:10;41.13;;;19.47;;
4112;SDS011;2070;51.042;7.056;2022-12-07T07:04:35;39.27;;;19.33;;
4112;SDS011;2070;51.042;7.056;2022-12-07T07:07:00;41.27;;;20.23;;
4112;SDS011;2070;51.042;7.056;2022-12-07T07:09:26;33.70;;;16.60;;
4112;SDS011;2070;51.042;7.056;2022-12-07T07:11:51;36.60;;;18.30;;
4112;SDS011;2070;51.042;7.056;2022-12-07T07:14:16;40.00;;;19.93;;
4112;SDS011;2070;51.042;7.056;2022-12-07T07:16:44;51.63;;;21.30;;
4112;SDS011;2070;51.042;7.056;2022-12-07T07:19:09;55.63;;;20.77;;
4112;SDS011;2070;51.042;7.056;2022-12-07T07:21:34;40.17;;;20.97;;
4112;SDS011;2070;51.042;7.056;2022-12-07T07:23:59;35.30;;;20.40;;
4112;SDS011;2070;51.042;7.056;2022-12-07T07:26:25;37.47;;;20.57;;
4112;SDS011;2070;51.042;7.056;2022-12-07T07:28:50;42.60;;;18.10;;
4112;SDS011;2070;51.042;7.056;2022-12-07T07:31:15;43.60;;;19.63;;
4112;SDS011;2070;51.042;7.056;2022-12-07T07:33:40;34.17;;;19.40;;
4112;SDS011;2070;51.042;7.056;2022-12-07T07:36:05;40.00;;;18.73;;
4112;SDS011;2070;51.042;7.056;2022-12-07T07:38:31;32.07;;;17.40;;
4112;SDS011;2070;51.042;7.056;2022-12-07T07:40:56;32.10;;;18.20;;
4112;SDS011;2070;51.042;7.056;2022-12-07T07:43:21;36.00;;;18.87;;
4112;SDS011;2070;51.042;7.056;2022-12-07T07:45:46;37.57;;;21.10;;
4112;SDS011;2070;51.042;7.056;2022-12-07T07:48:11;46.23;;;19.77;;
4112;SDS011;2070;51.042;7.056;2022-12-07T07:50:37;28.47;;;15.87;;
4112;SDS011;2070;51.042;7.056;2022-12-07T07:53:02;53.70;;;21.20;;
4112;SDS011;2070;51.042;7.056;2022-12-07T07:55:27;40.67;;;18.30;;
4112;SDS011;2070;51.042;7.056;2022-12-07T07:57:53;36.27;;;19.20;;
4112;SDS011;2070;51.042;7.056;2022-12-07T08:00:19;32.63;;;16.60;;
4112;SDS011;2070;51.042;7.056;2022-12-07T08:02:44;33.37;;;18.90;;
4112;SDS011;2070;51.042;7.056;2022-12-07T08:05:11;40.13;;;20.77;;
4112;SDS011;2070;51.042;7.056;2022-12-07T08:07:36;39.10;;;19.70;;
4112;SDS011;2070;51.042;7.056;2022-12-07T08:10:02;32.83;;;18.73;;
4112;SDS011;2070;51.042;7.056;2022-12-07T08:12:27;34.10;;;18.60;;
4112;SDS011;2070;51.042;7.056;2022-12-07T08:14:52;30.60;;;18.50;;
4112;SDS011;2070;51.042;7.056;2022-12-07T08:17:18;42.10;;;20.80;;
4112;SDS011;2070;51.042;7.056;2022-12-07T08:19:43;45.07;;;19.00;;
4112;SDS011;2070;51.042;7.056;2022-12-07T08:22:08;43.40;;;19.30;;
4112;SDS011;2070;51.042;7.056;2022-12-07T08:24:34;28.73;;;17.33;;
4112;SDS011;2070;51.042;7.056;2022-12-07T08:26:59;34.27;;;17.80;;
4112;SDS011;2070;51.042;7.056;2022-12-07T08:29:24;39.87;;;19.73;;
4112;SDS011;2070;51.042;7.056;2022-12-07T08:31:49;35.53;;;20.87;;
4112;SDS011;2070;51.042;7.056;2022-12-07T08:34:14;36.00;;;19.33;;
4112;SDS011;2070;51.042;7.056;2022-12-07T08:36:40;37.70;;;19.20;;
4112;SDS011;2070;51.042;7.056;2022-12-07T08:39:05;40.00;;;18.93;;
4112;SDS011;2070;51.042;7.056;2022-12-07T08:41:31;43.23;;;20.17;;
4112;SDS011;2070;51.042;7.056;2022-12-07T08:43:56;39.63;;;16.37;;
4112;SDS011;2070;51.042;7.056;2022-12-07T08:46:23;29.97;;;17.20;;
4112;SDS011;2070;51.042;7.056;2022-12-07T08:51:14;33.20;;;16.80;;
4112;SDS011;2070;51.042;7.056;2022-12-07T08:53:39;38.70;;;17.90;;
4112;SDS011;2070;51.042;7.056;2022-12-07T08:56:05;34.80;;;17.77;;
4112;SDS011;2070;51.042;7.056;2022-12-07T08:58:32;33.63;;;17.67;;
4112;SDS011;2070;51.042;7.056;2022-12-07T09:00:57;32.63;;;18.10;;
4112;SDS011;2070;51.042;7.056;2022-12-07T09:03:22;29.23;;;16.73;;
4112;SDS011;2070;51.042;7.056;2022-12-07T09:05:47;34.80;;;18.90;;
4112;SDS011;2070;51.042;7.056;2022-12-07T09:08:13;50.53;;;20.50;;
4112;SDS011;2070;51.042;7.056;2022-12-07T09:10:38;33.43;;;18.63;;
4112;SDS011;2070;51.042;7.056;2022-12-07T09:13:03;32.67;;;18.17;;
4112;SDS011;2070;51.042;7.056;2022-12-07T09:15:28;37.67;;;17.40;;
4112;SDS011;2070;51.042;7.056;2022-12-07T09:17:54;44.03;;;16.80;;
4112;SDS011;2070;51.042;7.056;2022-12-07T09:20:19;51.60;;;18.23;;
4112;SDS011;2070;51.042;7.056;2022-12-07T09:22:44;34.80;;;18.20;;
4112;SDS011;2070;51.042;7.056;2022-12-07T09:25:10;29.47;;;18.00;;
4112;SDS011;2070;51.042;7.056;2022-12-07T09:27:35;44.27;;;18.27;;
4112;SDS011;2070;51.042;7.056;2022-12-07T09:30:00;25.83;;;14.97;;
4112;SDS011;2070;51.042;7.056;2022-12-07T09:32:26;32.60;;;17.33;;
4112;SDS011;2070;51.042;7.056;2022-12-07T09:34:51;39.27;;;16.23;;
4112;SDS011;2070;51.042;7.056;2022-12-07T09:37:16;35.83;;;17.50;;
4112;SDS011;2070;51.042;7.056;2022-12-07T09:39:41;46.10;;;16.93;;
4112;SDS011;2070;51.042;7.056;2022-12-07T09:42:07;34.27;;;16.13;;
4112;SDS011;2070;51.042;7.056;2022-12-07T09:44:33;29.57;;;14.87;;
4112;SDS011;2070;51.042;7.056;2022-12-07T09:46:58;32.73;;;15.93;;
4112;SDS011;2070;51.042;7.056;2022-12-07T09:49:25;23.97;;;14.13;;
4112;SDS011;2070;51.042;7.056;2022-12-07T09:54:26;29.33;;;14.30;;
4112;SDS011;2070;51.042;7.056;2022-12-07T09:56:51;32.17;;;14.43;;
4112;SDS011;2070;51.042;7.056;2022-12-07T09:59:17;36.20;;;15.80;;
4112;SDS011;2070;51.042;7.056;2022-12-07T10:01:43;27.73;;;13.93;;
4112;SDS011;2070;51.042;7.056;2022-12-07T10:04:10;30.63;;;13.67;;
4112;SDS011;2070;51.042;7.056;2022-12-07T10:06:37;24.33;;;14.07;;
4112;SDS011;2070;51.042;7.056;2022-12-07T10:09:08;26.70;;;14.47;;
4112;SDS011;2070;51.042;7.056;2022-12-07T10:11:33;35.77;;;15.20;;
4112;SDS011;2070;51.042;7.056;2022-12-07T10:14:09;25.63;;;12.53;;
4112;SDS011;2070;51.042;7.056;2022-12-07T10:16:39;28.43;;;12.50;;
4112;SDS011;2070;51.042;7.056;2022-12-07T10:19:50;26.00;;;13.27;;
4112;SDS011;2070;51.042;7.056;2022-12-07T10:22:01;23.97;;;13.70;;
4112;SDS011;2070;51.042;7.056;2022-12-07T10:24:27;23.23;;;12.53;;
4112;SDS011;2070;51.042;7.056;2022-12-07T10:26:52;18.00;;;11.93;;
4112;SDS011;2070;51.042;7.056;2022-12-07T10:31:52;20.17;;;11.80;;
4112;SDS011;2070;51.042;7.056;2022-12-07T10:36:49;29.83;;;12.83;;
4112;SDS011;2070;51.042;7.056;2022-12-07T10:39:16;37.13;;;13.50;;
4112;SDS011;2070;51.042;7.056;2022-12-07T10:42:02;20.97;;;12.83;;
4112;SDS011;2070;51.042;7.056;2022-12-07T10:44:28;26.37;;;12.07;;
4112;SDS011;2070;51.042;7.056;2022-12-07T11:17:17;13.73;;;8.10;;
4112;SDS011;2070;51.042;7.056;2022-12-07T11:25:13;16.53;;;8.70;;
4112;SDS011;2070;51.042;7.056;2022-12-07T11:27:55;15.43;;;8.90;;
4112;SDS011;2070;51.042;7.056;2022-12-07T11:30:28;12.00;;;7.53;;
4112;SDS011;2070;51.042;7.056;2022-12-07T11:33:33;25.70;;;8.00;;
4112;SDS011;2070;51.042;7.056;2022-12-07T11:36:06;18.53;;;7.63;;
4112;SDS011;2070;51.042;7.056;2022-12-07T11:41:02;14.40;;;8.00;;
4112;SDS011;2070;51.042;7.056;2022-12-07T11:43:37;12.80;;;7.50;;
4112;SDS011;2070;51.042;7.056;2022-12-07T11:46:07;24.37;;;7.40;;
4112;SDS011;2070;51.042;7.056;2022-12-07T11:48:35;16.30;;;6.23;;
4112;SDS011;2070;51.042;7.056;2022-12-07T11:51:03;17.33;;;7.33;;
4112;SDS011;2070;51.042;7.056;2022-12-07T11:56:16;9.80;;;6.80;;
4112;SDS011;2070;51.042;7.056;2022-12-07T11:58:44;15.50;;;7.10;;
4112;SDS011;2070;51.042;7.056;2022-12-07T12:06:30;12.30;;;7.10;;
4112;SDS011;2070;51.042;7.056;2022-12-07T12:09:00;14.70;;;7.27;;
4112;SDS011;2070;51.042;7.056;2022-12-07T12:16:38;12.33;;;6.27;;
4112;SDS011;2070;51.042;7.056;2022-12-07T12:19:08;15.53;;;6.67;;
4112;SDS011;2070;51.042;7.056;2022-12-07T12:21:39;16.30;;;5.70;;
4112;SDS011;2070;51.042;7.056;2022-12-07T12:24:09;15.50;;;7.30;;
4112;SDS011;2070;51.042;7.056;2022-12-07T12:26:36;13.67;;;7.03;;
4112;SDS011;2070;51.042;7.056;2022-12-07T12:29:03;28.50;;;7.93;;
4112;SDS011;2070;51.042;7.056;2022-12-07T12:31:39;17.37;;;7.53;;
4112;SDS011;2070;51.042;7.056;2022-12-07T12:36:50;16.53;;;6.93;;
4112;SDS011;2070;51.042;7.056;2022-12-07T12:39:16;13.10;;;7.10;;
4112;SDS011;2070;51.042;7.056;2022-12-07T12:46:45;12.33;;;6.67;;
4112;SDS011;2070;51.042;7.056;2022-12-07T12:51:40;8.73;;;6.47;;
4112;SDS011;2070;51.042;7.056;2022-12-07T12:54:05;27.37;;;6.13;;
4112;SDS011;2070;51.042;7.056;2022-12-07T13:01:48;19.43;;;6.90;;
4112;SDS011;2070;51.042;7.056;2022-12-07T13:04:38;12.10;;;6.23;;
4112;SDS011;2070;51.042;7.056;2022-12-07T13:07:00;9.30;;;5.10;;
4112;SDS011;2070;51.042;7.056;2022-12-07T13:11:55;19.27;;;6.30;;
4112;SDS011;2070;51.042;7.056;2022-12-07T13:17:02;15.60;;;4.93;;
4112;SDS011;2070;51.042;7.056;2022-12-07T13:19:52;17.43;;;5.07;;
4112;SDS011;2070;51.042;7.056;2022-12-07T13:24:56;10.23;;;6.10;;
4112;SDS011;2070;51.042;7.056;2022-12-07T13:27:22;15.93;;;5.30;;
4112;SDS011;2070;51.042;7.056;2022-12-07T13:29:47;35.40;;;7.90;;
4112;SDS011;2070;51.042;7.056;2022-12-07T13:32:26;7.00;;;5.80;;
4112;SDS011;2070;51.042;7.056;2022-12-07T13:34:51;19.33;;;6.60;;
4112;SDS011;2070;51.042;7.056;2022-12-07T13:40:01;15.73;;;6.72;;
4112;SDS011;2070;51.042;7.056;2022-12-07T13:42:31;12.90;;;5.20;;
4112;SDS011;2070;51.042;7.056;2022-12-07T13:44:57;15.43;;;5.00;;
4112;SDS011;2070;51.042;7.056;2022-12-07T13:47:27;48.63;;;19.40;;
4112;SDS011;2070;51.042;7.056;2022-12-07T13:49:56;8.77;;;5.60;;
4112;SDS011;2070;51.042;7.056;2022-12-07T13:52:23;18.43;;;6.10;;
4112;SDS011;2070;51.042;7.056;2022-12-07T13:54:54;11.80;;;5.77;;
4112;SDS011;2070;51.042;7.056;2022-12-07T13:57:20;9.77;;;5.50;;
4112;SDS011;2070;51.042;7.056;2022-12-07T13:59:45;13.20;;;6.33;;
4112;SDS011;2070;51.042;7.056;2022-12-07T14:02:18;20.10;;;6.60;;
4112;SDS011;2070;51.042;7.056;2022-12-07T14:04:44;26.70;;;6.60;;
4112;SDS011;2070;51.042;7.056;2022-12-07T14:07:20;12.60;;;5.97;;
4112;SDS011;2070;51.042;7.056;2022-12-07T14:09:56;16.90;;;6.47;;
4112;SDS011;2070;51.042;7.056;2022-12-07T14:12:23;10.50;;;5.83;;
4112;SDS011;2070;51.042;7.056;2022-12-07T14:14:48;11.73;;;5.73;;
4112;SDS011;2070;51.042;7.056;2022-12-07T14:17:21;12.67;;;7.43;;
4112;SDS011;2070;51.042;7.056;2022-12-07T14:19:50;17.53;;;6.50;;
4112;SDS011;2070;51.042;7.056;2022-12-07T14:22:38;11.83;;;4.80;;
4112;SDS011;2070;51.042;7.056;2022-12-07T14:27:50;7.37;;;5.90;;
4112;SDS011;2070;51.042;7.056;2022-12-07T14:30:16;9.20;;;5.40;;
4112;SDS011;2070;51.042;7.056;2022-12-07T14:32:42;13.10;;;6.00;;
4112;SDS011;2070;51.042;7.056;2022-12-07T14:35:13;9.40;;;5.60;;
4112;SDS011;2070;51.042;7.056;2022-12-07T14:37:40;11.97;;;6.17;;
4112;SDS011;2070;51.042;7.056;2022-12-07T14:40:06;7.23;;;5.87;;
4112;SDS011;2070;51.042;7.056;2022-12-07T14:42:32;10.77;;;5.37;;
4112;SDS011;2070;51.042;7.056;2022-12-07T14:44:58;19.07;;;6.27;;
4112;SDS011;2070;51.042;7.056;2022-12-07T14:47:23;11.93;;;6.03;;
4112;SDS011;2070;51.042;7.056;2022-12-07T14:49:49;15.90;;;6.20;;
4112;SDS011;2070;51.042;7.056;2022-12-07T14:52:18;22.50;;;6.20;;
4112;SDS011;2070;51.042;7.056;2022-12-07T14:54:44;10.80;;;5.40;;
4112;SDS011;2070;51.042;7.056;2022-12-07T14:57:10;13.37;;;6.63;;
4112;SDS011;2070;51.042;7.056;2022-12-07T14:59:36;22.43;;;5.20;;
4112;SDS011;2070;51.042;7.056;2022-12-07T15:02:01;22.13;;;10.53;;
4112;SDS011;2070;51.042;7.056;2022-12-07T15:04:26;16.07;;;8.90;;
4112;SDS011;2070;51.042;7.056;2022-12-07T15:06:55;20.40;;;9.20;;
4112;SDS011;2070;51.042;7.056;2022-12-07T15:09:20;9.73;;;5.60;;
4112;SDS011;2070;51.042;7.056;2022-12-07T15:11:46;24.00;;;6.53;;
4112;SDS011;2070;51.042;7.056;2022-12-07T15:14:11;14.13;;;7.20;;
4112;SDS011;2070;51.042;7.056;2022-12-07T15:16:37;10.57;;;6.03;;
4112;SDS011;2070;51.042;7.056;2022-12-07T15:19:04;9.40;;;6.03;;
4112;SDS011;2070;51.042;7.056;2022-12-07T15:21:30;13.40;;;6.40;;
4112;SDS011;2070;51.042;7.056;2022-12-07T15:23:55;14.10;;;6.00;;
4112;SDS011;2070;51.042;7.056;2022-12-07T15:26:20;16.90;;;6.40;;
4112;SDS011;2070;51.042;7.056;2022-12-07T15:28:46;20.23;;;7.30;;
4112;SDS011;2070;51.042;7.056;2022-12-07T15:31:11;21.50;;;8.00;;
4112;SDS011;2070;51.042;7.056;2022-12-07T15:33:37;17.63;;;8.43;;
4112;SDS011;2070;51.042;7.056;2022-12-07T15:36:02;20.93;;;8.23;;
4112;SDS011;2070;51.042;7.056;2022-12-07T15:38:27;11.40;;;6.83;;
4112;SDS011;2070;51.042;7.056;2022-12-07T15:40:55;11.67;;;7.07;;
4112;SDS011;2070;51.042;7.056;2022-12-07T15:43:20;12.00;;;6.23;;
4112;SDS011;2070;51.042;7.056;2022-12-07T15:46:04;8.27;;;4.03;;
4112;SDS011;2070;51.042;7.056;2022-12-07T15:48:29;14.80;;;4.80;;
4112;SDS011;2070;51.042;7.056;2022-12-07T15:51:01;5.90;;;4.13;;
4112;SDS011;2070;51.042;7.056;2022-12-07T15:53:26;14.33;;;5.87;;
4112;SDS011;2070;51.042;7.056;2022-12-07T15:55:52;6.77;;;4.70;;
4112;SDS011;2070;51.042;7.056;2022-12-07T15:58:17;4.77;;;3.70;;
4112;SDS011;2070;51.042;7.056;2022-12-07T16:00:42;5.00;;;3.77;;
4112;SDS011;2070;51.042;7.056;2022-12-07T16:03:07;9.77;;;5.00;;
4112;SDS011;2070;51.042;7.056;2022-12-07T16:05:32;9.97;;;5.87;;
4112;SDS011;2070;51.042;7.056;2022-12-07T16:07:58;8.80;;;5.07;;
4112;SDS011;2070;51.042;7.056;2022-12-07T16:10:23;13.13;;;5.77;;
4112;SDS011;2070;51.042;7.056;2022-12-07T16:12:48;21.50;;;6.30;;
4112;SDS011;2070;51.042;7.056;2022-12-07T16:15:14;10.17;;;4.80;;
4112;SDS011;2070;51.042;7.056;2022-12-07T16:17:40;8.73;;;4.40;;
4112;SDS011;2070;51.042;7.056;2022-12-07T16:20:05;11.63;;;5.50;;
4112;SDS011;2070;51.042;7.056;2022-12-07T16:22:30;4.70;;;4.23;;
4112;SDS011;2070;51.042;7.056;2022-12-07T16:24:56;5.50;;;3.87;;
4112;SDS011;2070;51.042;7.056;2022-12-07T16:27:21;12.70;;;5.10;;
4112;SDS011;2070;51.042;7.056;2022-12-07T16:29:46;12.43;;;5.10;;
4112;SDS011;2070;51.042;7.056;2022-12-07T16:32:11;7.27;;;4.27;;
4112;SDS011;2070;51.042;7.056;2022-12-07T16:34:36;7.93;;;5.10;;
4112;SDS011;2070;51.042;7.056;2022-12-07T16:37:01;8.43;;;6.30;;
4112;SDS011;2070;51.042;7.056;2022-12-07T16:39:27;14.00;;;6.77;;
4112;SDS011;2070;51.042;7.056;2022-12-07T16:41:52;13.33;;;6.10;;
4112;SDS011;2070;51.042;7.056;2022-12-07T16:44:18;17.80;;;7.00;;
4112;SDS011;2070;51.042;7.056;2022-12-07T16:46:43;19.87;;;9.17;;
4112;SDS011;2070;51.042;7.056;2022-12-07T16:49:12;13.37;;;7.37;;
4112;SDS011;2070;51.042;7.056;2022-12-07T16:51:37;12.73;;;6.17;;
4112;SDS011;2070;51.042;7.056;2022-12-07T16:54:03;12.70;;;5.80;;
4112;SDS011;2070;51.042;7.056;2022-12-07T16:56:28;9.77;;;6.30;;